Time;durP1;ratioP1;P1;durP2;ratioP2;P2;SDS_P1;SDS_P2;PMS_P1;PMS_P2;Temp;Humidity;BMP_temperature;BMP_pressure;BME280_temperature;BME280_humidity;BME280_pressure;Samples;Min_cycle;Max_cycle;Signal;HPM_P1;HPM_P2
2023/12/02 00:01:36;;;;;;;32.80;19.00;;;-5.40;79.00;;;;;;6252982;28;20288;-79
2023/12/02 00:04:40;;;;;;;33.70;18.90;;;-5.40;79.00;;;;;;6257106;28;20238;-81
2023/12/02 00:07:43;;;;;;;31.70;18.17;;;-5.40;78.90;;;;;;6253794;28;20242;-82
2023/12/02 00:10:47;;;;;;;34.83;20.00;;;-5.40;79.10;;;;;;6253879;28;20880;-79
2023/12/02 00:13:50;;;;;;;35.43;18.83;;;-5.40;78.90;;;;;;6254709;28;20328;-81
2023/12/02 00:16:53;;;;;;;28.60;17.90;;;-5.40;79.00;;;;;;6251898;28;20246;-80
2023/12/02 00:19:58;;;;;;;31.80;18.67;;;-5.40;79.00;;;;;;6254312;28;21193;-83
2023/12/02 00:23:02;;;;;;;34.27;18.47;;;-5.40;79.00;;;;;;6255361;28;20245;-80
2023/12/02 00:26:07;;;;;;;33.73;19.30;;;-5.40;78.90;;;;;;6250957;28;20241;-81
2023/12/02 00:29:10;;;;;;;36.23;19.13;;;-5.40;79.00;;;;;;6251819;28;20230;-81
2023/12/02 00:32:14;;;;;;;34.13;18.67;;;-5.40;78.90;;;;;;6251847;28;20744;-83
2023/12/02 00:35:31;;;;;;;36.27;18.40;;;-5.40;78.70;;;;;;6249390;28;20241;-81
2023/12/02 00:38:34;;;;;;;33.67;19.40;;;-5.40;78.50;;;;;;6254685;28;20269;-82
2023/12/02 00:41:39;;;;;;;33.57;18.60;;;-5.40;78.30;;;;;;6258273;28;20945;-82
2023/12/02 00:44:42;;;;;;;35.80;19.77;;;-5.40;78.50;;;;;;6241407;28;21089;-82
2023/12/02 00:47:46;;;;;;;34.47;19.27;;;-5.40;78.00;;;;;;6250443;28;20240;-80
2023/12/02 00:50:49;;;;;;;37.17;20.73;;;-5.40;78.10;;;;;;6249607;28;20850;-80
2023/12/02 00:53:53;;;;;;;37.37;19.90;;;-5.50;78.50;;;;;;6258024;28;20253;-81
2023/12/02 00:56:57;;;;;;;40.67;22.13;;;-5.50;78.70;;;;;;6260288;28;20833;-81
2023/12/02 01:00:00;;;;;;;41.47;21.50;;;-5.40;78.80;;;;;;6251848;28;20312;-80
2023/12/02 01:03:04;;;;;;;39.80;21.23;;;-5.50;78.90;;;;;;6248490;28;20243;-81
2023/12/02 01:06:07;;;;;;;40.03;19.97;;;-5.40;79.10;;;;;;6252881;28;20902;-84
2023/12/02 01:09:11;;;;;;;36.20;19.97;;;-5.40;79.30;;;;;;6257518;28;20238;-79
2023/12/02 01:12:15;;;;;;;34.33;18.93;;;-5.40;79.30;;;;;;6259024;28;20775;-82
2023/12/02 01:15:19;;;;;;;36.47;19.33;;;-5.40;79.30;;;;;;6264821;28;20840;-82
2023/12/02 01:18:22;;;;;;;36.67;19.63;;;-5.40;79.30;;;;;;6250938;28;20240;-81
2023/12/02 01:21:25;;;;;;;37.33;20.00;;;-5.40;79.20;;;;;;6267747;28;20229;-81
2023/12/02 01:24:28;;;;;;;34.60;20.27;;;-5.40;79.30;;;;;;6258549;28;20667;-81
2023/12/02 01:27:33;;;;;;;40.17;21.20;;;-5.40;79.00;;;;;;6235709;28;20233;-82
2023/12/02 01:30:36;;;;;;;40.90;22.10;;;-5.50;79.00;;;;;;6246229;28;20231;-83
2023/12/02 01:33:39;;;;;;;40.47;20.07;;;-5.60;79.40;;;;;;6255893;28;20279;-80
2023/12/02 01:36:42;;;;;;;42.13;21.63;;;-5.60;79.50;;;;;;6260446;28;20243;-80
2023/12/02 01:39:47;;;;;;;42.80;22.80;;;-5.50;79.60;;;;;;6263623;28;20233;-79
2023/12/02 01:42:51;;;;;;;41.43;21.23;;;-5.50;79.20;;;;;;6261195;28;20242;-80
2023/12/02 01:45:55;;;;;;;38.47;21.07;;;-5.40;78.70;;;;;;6253275;28;20802;-80
2023/12/02 01:49:00;;;;;;;39.13;20.27;;;-5.40;78.60;;;;;;6258772;28;20245;-79
2023/12/02 01:52:03;;;;;;;37.30;20.07;;;-5.50;78.60;;;;;;6255419;28;20862;-82
2023/12/02 01:55:09;;;;;;;34.23;18.57;;;-5.50;78.60;;;;;;6244613;28;20372;-80
2023/12/02 01:58:13;;;;;;;37.93;19.53;;;-5.50;78.60;;;;;;6266873;28;20245;-81
2023/12/02 02:01:16;;;;;;;37.23;19.47;;;-5.60;78.40;;;;;;6258569;28;20373;-80
2023/12/02 02:04:19;;;;;;;33.40;19.20;;;-5.60;78.40;;;;;;6257319;28;20313;-82
2023/12/02 02:07:23;;;;;;;35.90;21.03;;;-5.60;78.40;;;;;;6251490;28;20249;-82
2023/12/02 02:10:26;;;;;;;38.33;19.63;;;-5.60;78.50;;;;;;6251378;28;20238;-81
2023/12/02 02:13:30;;;;;;;34.07;18.90;;;-5.60;78.50;;;;;;6247204;28;20275;-82
2023/12/02 02:16:34;;;;;;;39.97;19.73;;;-5.70;78.40;;;;;;6254505;28;20616;-80
2023/12/02 02:19:37;;;;;;;29.90;16.93;;;-5.70;78.40;;;;;;6250455;28;20258;-80
2023/12/02 02:22:41;;;;;;;29.20;16.80;;;-5.70;78.20;;;;;;6259219;28;20244;-81
2023/12/02 02:25:45;;;;;;;35.73;18.87;;;-5.80;78.30;;;;;;6250803;28;20273;-83
2023/12/02 02:28:48;;;;;;;32.53;17.97;;;-5.80;78.10;;;;;;6245641;28;20265;-79
2023/12/02 02:31:51;;;;;;;38.63;18.23;;;-5.90;77.90;;;;;;6249036;28;20855;-80
2023/12/02 02:34:55;;;;;;;32.33;18.47;;;-6.00;78.30;;;;;;6256102;28;20588;-81
2023/12/02 02:37:59;;;;;;;33.63;18.47;;;-6.00;78.30;;;;;;6246099;28;20278;-78
2023/12/02 02:41:02;;;;;;;37.67;19.33;;;-6.00;78.30;;;;;;6245993;28;20782;-81
2023/12/02 02:44:06;;;;;;;37.87;18.33;;;-6.00;78.60;;;;;;6252933;28;20312;-80
2023/12/02 02:47:09;;;;;;;36.27;18.83;;;-5.90;78.80;;;;;;6253045;28;20241;-81
2023/12/02 02:50:12;;;;;;;40.60;19.77;;;-5.80;78.50;;;;;;6255442;28;20249;-82
2023/12/02 02:53:16;;;;;;;37.67;18.60;;;-5.90;78.20;;;;;;6243175;28;20386;-81
2023/12/02 02:56:19;;;;;;;43.07;18.67;;;-5.90;78.40;;;;;;6253173;28;20376;-82
2023/12/02 02:59:22;;;;;;;36.77;18.83;;;-5.90;78.30;;;;;;6255623;28;20276;-79
2023/12/02 03:02:25;;;;;;;38.50;19.90;;;-6.00;78.30;;;;;;6257576;28;20266;-81
2023/12/02 03:05:28;;;;;;;41.07;20.93;;;-6.00;78.70;;;;;;6248230;28;20651;-79
2023/12/02 03:08:33;;;;;;;39.70;20.43;;;-6.00;78.80;;;;;;6248172;28;20479;-80
2023/12/02 03:11:36;;;;;;;39.13;19.07;;;-6.00;78.80;;;;;;6258611;28;20269;-80
2023/12/02 03:14:40;;;;;;;32.33;17.77;;;-6.00;78.80;;;;;;6241897;28;20241;-80
2023/12/02 03:17:43;;;;;;;35.70;18.57;;;-6.00;78.60;;;;;;6246890;28;20239;-82
2023/12/02 03:20:46;;;;;;;37.53;19.47;;;-6.00;78.60;;;;;;6245910;28;20229;-81
2023/12/02 03:23:51;;;;;;;34.13;18.27;;;-6.00;78.40;;;;;;6259376;28;20250;-80
2023/12/02 03:26:54;;;;;;;36.93;19.30;;;-6.20;79.10;;;;;;6253121;28;20317;-80
2023/12/02 03:29:57;;;;;;;33.80;17.43;;;-6.30;79.60;;;;;;6246056;28;20844;-81
2023/12/02 03:33:00;;;;;;;30.17;17.33;;;-6.30;79.60;;;;;;6245511;28;20253;-82
2023/12/02 03:36:04;;;;;;;29.20;17.37;;;-6.20;79.30;;;;;;6253589;28;20242;-82
2023/12/02 03:39:12;;;;;;;32.17;18.03;;;-6.30;79.00;;;;;;6245983;28;20863;-81
2023/12/02 03:42:15;;;;;;;32.63;17.07;;;-6.40;79.10;;;;;;6256088;28;20234;-82
2023/12/02 03:45:18;;;;;;;37.47;18.50;;;-6.40;79.40;;;;;;6240959;28;20286;-78
2023/12/02 03:48:21;;;;;;;30.97;17.20;;;-6.40;79.40;;;;;;6246824;28;20234;-81
2023/12/02 03:51:24;;;;;;;31.50;17.93;;;-6.30;79.50;;;;;;6251731;28;20246;-81
2023/12/02 03:54:29;;;;;;;29.67;16.30;;;-6.30;79.30;;;;;;6260967;28;20341;-81
2023/12/02 03:57:32;;;;;;;27.40;15.47;;;-6.30;79.20;;;;;;6243323;28;20243;-81
2023/12/02 04:00:35;;;;;;;24.17;15.43;;;-6.30;78.70;;;;;;6249777;28;20256;-81
2023/12/02 04:03:38;;;;;;;22.47;15.07;;;-6.40;79.00;;;;;;6254359;28;20329;-80
2023/12/02 04:06:43;;;;;;;24.77;14.93;;;-6.50;79.30;;;;;;6248475;28;20920;-81
2023/12/02 04:09:48;;;;;;;25.80;16.23;;;-6.50;79.40;;;;;;6258889;28;20915;-81
2023/12/02 04:12:51;;;;;;;25.63;14.47;;;-6.50;79.60;;;;;;6254949;28;20734;-82
2023/12/02 04:15:54;;;;;;;22.03;14.63;;;-6.60;79.20;;;;;;6250385;28;20325;-82
2023/12/02 04:18:57;;;;;;;20.60;13.90;;;-6.70;79.50;;;;;;6244287;28;20622;-81
2023/12/02 04:22:01;;;;;;;22.10;13.27;;;-6.70;79.30;;;;;;6257109;28;20244;-81
2023/12/02 04:25:06;;;;;;;21.30;12.70;;;-6.70;79.40;;;;;;6239992;28;20241;-82
2023/12/02 04:28:09;;;;;;;19.80;13.30;;;-6.70;79.20;;;;;;6250145;28;20242;-79
2023/12/02 04:31:13;;;;;;;21.77;13.27;;;-6.70;79.50;;;;;;6250525;28;20313;-80
2023/12/02 04:34:16;;;;;;;21.60;14.30;;;-6.60;79.30;;;;;;6247480;28;20369;-81
2023/12/02 04:37:19;;;;;;;21.87;13.90;;;-6.60;79.20;;;;;;6254063;28;20268;-81
2023/12/02 04:40:23;;;;;;;24.67;14.73;;;-6.60;79.20;;;;;;6253734;28;20828;-79
2023/12/02 04:43:26;;;;;;;21.57;13.33;;;-6.60;78.90;;;;;;6247797;28;20789;-81
2023/12/02 04:46:29;;;;;;;22.33;14.20;;;-6.60;79.10;;;;;;6254147;28;20267;-81
2023/12/02 04:49:33;;;;;;;21.53;14.60;;;-6.70;79.50;;;;;;6249744;28;20701;-80
2023/12/02 04:52:36;;;;;;;20.57;13.53;;;-6.70;79.90;;;;;;6252822;28;20928;-81
2023/12/02 04:55:40;;;;;;;22.90;13.93;;;-6.80;79.70;;;;;;6241428;28;20264;-81
2023/12/02 04:58:43;;;;;;;23.10;13.90;;;-6.70;79.60;;;;;;6252730;28;20329;-81
2023/12/02 05:01:46;;;;;;;18.87;12.40;;;-6.80;79.40;;;;;;6237625;28;20247;-81
2023/12/02 05:04:49;;;;;;;18.10;12.57;;;-6.80;79.70;;;;;;6255042;28;20248;-81
2023/12/02 05:07:52;;;;;;;23.03;14.07;;;-6.90;79.70;;;;;;6248569;28;20825;-82
2023/12/02 05:10:57;;;;;;;21.33;13.10;;;-6.90;79.50;;;;;;6252849;28;20234;-79
2023/12/02 05:14:01;;;;;;;22.37;14.47;;;-6.90;79.80;;;;;;6240625;28;20333;-80
2023/12/02 05:17:04;;;;;;;20.10;12.87;;;-6.90;79.90;;;;;;6239587;28;20257;-81
2023/12/02 05:20:11;;;;;;;20.43;12.80;;;-6.90;79.80;;;;;;6249367;28;20824;-84
2023/12/02 05:23:14;;;;;;;18.07;12.20;;;-6.90;79.70;;;;;;6248234;28;20242;-80
2023/12/02 05:26:18;;;;;;;18.53;12.53;;;-6.90;79.70;;;;;;6251267;28;20242;-80
2023/12/02 05:29:21;;;;;;;15.63;11.03;;;-6.90;80.10;;;;;;6243073;28;20238;-80
2023/12/02 05:32:24;;;;;;;17.13;11.07;;;-6.90;79.50;;;;;;6242958;28;20269;-78
2023/12/02 05:35:27;;;;;;;17.17;11.80;;;-6.90;79.20;;;;;;6247848;28;20321;-80
2023/12/02 05:38:30;;;;;;;19.87;13.23;;;-6.80;79.40;;;;;;6250225;28;20281;-81
2023/12/02 05:41:35;;;;;;;15.50;11.90;;;-6.90;79.30;;;;;;6251536;28;20226;-81
2023/12/02 05:44:41;;;;;;;15.03;11.27;;;-6.90;79.30;;;;;;6245143;28;20234;-82
2023/12/02 05:47:44;;;;;;;17.80;12.30;;;-6.90;79.30;;;;;;6257742;28;20313;-81
2023/12/02 05:50:47;;;;;;;14.50;10.70;;;-6.90;79.20;;;;;;6259644;28;20341;-83
2023/12/02 05:53:50;;;;;;;16.83;11.77;;;-6.90;79.20;;;;;;6251087;28;20240;-80
2023/12/02 05:56:55;;;;;;;13.93;10.03;;;-6.90;79.10;;;;;;6247813;28;20739;-81
2023/12/02 05:59:58;;;;;;;15.93;11.07;;;-6.80;79.30;;;;;;6249156;28;20246;-83
2023/12/02 06:03:01;;;;;;;15.17;11.43;;;-6.90;79.30;;;;;;6255062;28;21002;-80
2023/12/02 06:06:11;;;;;;;16.53;11.13;;;-6.90;79.40;;;;;;6255897;28;20234;-81
2023/12/02 06:09:14;;;;;;;15.63;11.57;;;-6.90;79.70;;;;;;6249420;28;20654;-81
2023/12/02 06:12:18;;;;;;;15.27;10.90;;;-6.80;79.70;;;;;;6256908;28;20249;-83
2023/12/02 06:15:22;;;;;;;16.23;11.60;;;-6.70;79.50;;;;;;6261335;28;20786;-81
2023/12/02 06:18:25;;;;;;;15.57;10.97;;;-6.80;79.40;;;;;;6256953;28;20245;-82
2023/12/02 06:21:28;;;;;;;14.40;11.30;;;-6.80;79.50;;;;;;6249957;28;20321;-81
2023/12/02 06:24:31;;;;;;;13.23;10.67;;;-6.70;79.50;;;;;;6254216;28;20307;-84
2023/12/02 06:27:36;;;;;;;13.30;9.93;;;-6.80;79.50;;;;;;6253683;28;21408;-83
2023/12/02 06:30:39;;;;;;;16.83;11.47;;;-6.80;79.60;;;;;;6250334;28;20239;-83
2023/12/02 06:33:43;;;;;;;14.37;11.20;;;-6.70;79.60;;;;;;6252518;28;20375;-83
2023/12/02 06:36:46;;;;;;;13.27;10.60;;;-6.70;79.20;;;;;;6260623;28;20304;-84
2023/12/02 06:39:49;;;;;;;14.47;11.30;;;-6.70;79.10;;;;;;6254811;28;20957;-84
2023/12/02 06:42:53;;;;;;;13.27;10.47;;;-6.70;79.40;;;;;;6249656;28;20234;-82
2023/12/02 06:45:56;;;;;;;17.87;11.27;;;-6.60;79.50;;;;;;6256105;28;20238;-81
2023/12/02 06:48:59;;;;;;;15.00;10.80;;;-6.50;79.60;;;;;;6252883;28;20265;-81
2023/12/02 06:52:03;;;;;;;15.73;11.03;;;-6.40;79.60;;;;;;6239158;28;20261;-82
2023/12/02 06:55:08;;;;;;;13.43;10.30;;;-6.30;79.60;;;;;;6243732;28;20324;-83
2023/12/02 06:58:16;;;;;;;14.13;9.90;;;-6.10;79.10;;;;;;6249755;28;20278;-85
2023/12/02 07:01:26;;;;;;;15.63;10.63;;;-6.10;79.00;;;;;;6247504;28;20234;-84
2023/12/02 07:04:29;;;;;;;15.73;11.53;;;-6.10;78.80;;;;;;6250010;28;20246;-83
2023/12/02 07:07:32;;;;;;;13.87;10.80;;;-6.00;78.70;;;;;;6253898;28;20238;-83
2023/12/02 07:10:35;;;;;;;18.77;11.73;;;-6.00;78.70;;;;;;6255030;28;20222;-79
2023/12/02 07:13:41;;;;;;;15.97;11.33;;;-5.80;78.60;;;;;;6282130;28;20241;-81
2023/12/02 07:16:45;;;;;;;14.43;10.97;;;-5.80;78.30;;;;;;6259943;28;20237;-82
2023/12/02 07:19:48;;;;;;;15.17;11.17;;;-5.70;78.30;;;;;;6252861;28;20924;-81
2023/12/02 07:22:51;;;;;;;14.07;10.67;;;-5.70;77.80;;;;;;6257397;28;20730;-82
2023/12/02 07:25:54;;;;;;;14.27;10.70;;;-5.70;77.60;;;;;;6254464;28;20242;-85
2023/12/02 07:28:59;;;;;;;12.23;9.97;;;-5.60;77.50;;;;;;6252561;28;20314;-83
2023/12/02 07:32:02;;;;;;;14.03;10.20;;;-5.60;77.40;;;;;;6257047;28;20245;-81
2023/12/02 07:35:06;;;;;;;14.03;9.90;;;-5.60;77.20;;;;;;6247904;28;20242;-82
2023/12/02 07:38:09;;;;;;;12.43;9.50;;;-5.60;77.50;;;;;;6248417;28;20245;-82
2023/12/02 07:41:12;;;;;;;11.60;9.97;;;-5.60;77.50;;;;;;6247856;28;20238;-82
2023/12/02 07:44:17;;;;;;;10.00;8.97;;;-5.50;77.50;;;;;;6251439;28;20237;-82
2023/12/02 07:47:20;;;;;;;14.27;10.43;;;-5.50;77.70;;;;;;6255832;28;20245;-85
2023/12/02 07:50:23;;;;;;;12.67;10.63;;;-5.50;78.00;;;;;;6251845;28;20257;-84
2023/12/02 07:53:26;;;;;;;13.13;9.63;;;-5.40;77.80;;;;;;6251577;28;20323;-84
2023/12/02 07:56:30;;;;;;;13.77;9.83;;;-5.40;78.10;;;;;;6252892;28;20751;-85
2023/12/02 07:59:34;;;;;;;14.23;10.43;;;-5.40;78.10;;;;;;6250688;28;20231;-83
2023/12/02 08:02:37;;;;;;;10.97;9.87;;;-5.40;78.10;;;;;;6250347;28;20375;-82
2023/12/02 08:05:41;;;;;;;13.63;10.40;;;-5.30;78.40;;;;;;6249008;28;20233;-82
2023/12/02 08:08:47;;;;;;;14.43;11.40;;;-5.20;78.70;;;;;;6249573;28;20223;-83
2023/12/02 08:11:50;;;;;;;16.67;11.30;;;-5.00;78.40;;;;;;6256570;28;20241;-83
2023/12/02 08:14:55;;;;;;;14.47;10.93;;;-4.90;77.80;;;;;;6253139;28;20233;-83
2023/12/02 08:17:58;;;;;;;17.77;11.40;;;-4.80;77.90;;;;;;6251500;28;20244;-80
2023/12/02 08:21:01;;;;;;;14.47;10.67;;;-4.70;77.70;;;;;;6257169;28;20263;-80
2023/12/02 08:24:04;;;;;;;14.93;10.73;;;-4.60;77.60;;;;;;6251877;28;20969;-82
2023/12/02 08:27:07;;;;;;;13.57;10.83;;;-4.60;77.30;;;;;;6240489;28;20313;-80
2023/12/02 08:30:13;;;;;;;11.53;10.23;;;-4.90;77.50;;;;;;6248819;28;20996;-79
2023/12/02 08:33:16;;;;;;;13.53;10.23;;;-4.80;77.90;;;;;;6249542;28;20338;-81
2023/12/02 08:36:19;;;;;;;13.83;10.43;;;-4.80;77.90;;;;;;6250917;28;20977;-80
2023/12/02 08:39:23;;;;;;;13.73;10.80;;;-4.60;77.40;;;;;;6259200;28;20758;-82
2023/12/02 08:42:26;;;;;;;16.53;11.20;;;-4.80;77.50;;;;;;6245755;28;20250;-82
2023/12/02 08:45:30;;;;;;;13.23;10.20;;;-4.80;78.00;;;;;;6244615;28;20320;-81
2023/12/02 08:48:34;;;;;;;11.93;10.67;;;-4.80;78.30;;;;;;6252970;28;20268;-82
2023/12/02 08:51:39;;;;;;;14.77;10.90;;;-4.70;78.10;;;;;;6250854;28;20738;-80
2023/12/02 08:54:42;;;;;;;17.50;11.57;;;-4.60;77.90;;;;;;6255485;28;20243;-81
2023/12/02 08:57:45;;;;;;;13.93;10.90;;;-4.40;77.60;;;;;;6251893;28;20302;-83
2023/12/02 09:00:50;;;;;;;14.63;10.50;;;-4.30;77.40;;;;;;6251075;28;20230;-80
2023/12/02 09:03:54;;;;;;;14.67;10.50;;;-4.30;77.00;;;;;;6247957;28;20234;-79
2023/12/02 09:06:58;;;;;;;14.73;10.77;;;-4.60;77.40;;;;;;6250849;28;20268;-80
2023/12/02 09:10:03;;;;;;;19.27;11.63;;;-4.40;77.60;;;;;;6248818;28;20239;-79
2023/12/02 09:13:12;;;;;;;15.90;11.33;;;-4.30;77.10;;;;;;6248418;28;20853;-82
2023/12/02 09:16:20;;;;;;;14.07;10.47;;;-4.10;76.70;;;;;;6253572;28;20245;-79
2023/12/02 09:19:53;;;;;;;16.37;11.27;;;-4.10;76.80;;;;;;6251548;28;20292;-80
2023/12/02 09:23:00;;;;;;;17.93;11.43;;;-4.00;76.60;;;;;;6244596;28;20325;-81
2023/12/02 09:26:23;;;;;;;17.93;11.70;;;-3.80;76.60;;;;;;6259478;28;20229;-80
2023/12/02 09:29:32;;;;;;;19.60;11.80;;;-3.80;76.40;;;;;;6253422;28;20254;-79
2023/12/02 09:32:46;;;;;;;17.23;11.53;;;-3.70;76.40;;;;;;6251993;28;20292;-79
2023/12/02 09:35:54;;;;;;;14.97;10.90;;;-3.60;75.90;;;;;;6254244;28;20311;-82
2023/12/02 09:39:04;;;;;;;19.93;11.60;;;-3.50;75.70;;;;;;6255575;28;20799;-81
2023/12/02 09:42:12;;;;;;;20.30;12.50;;;-3.50;75.20;;;;;;6245373;28;20612;-78
2023/12/02 09:45:20;;;;;;;14.10;11.03;;;-3.40;74.80;;;;;;6258838;28;20348;-84
2023/12/02 09:48:27;;;;;;;16.97;11.77;;;-3.50;75.10;;;;;;6262011;28;20303;-81
2023/12/02 09:51:41;;;;;;;15.07;12.13;;;-3.50;75.10;;;;;;6252580;28;20234;-80
2023/12/02 09:54:54;;;;;;;16.27;12.30;;;-3.50;75.50;;;;;;6247166;28;20840;-81
2023/12/02 09:58:10;;;;;;;15.03;10.87;;;-3.40;75.30;;;;;;6257749;28;20226;-81
2023/12/02 10:01:22;;;;;;;14.83;11.77;;;-3.20;75.30;;;;;;6253192;28;20559;-82
2023/12/02 10:04:38;;;;;;;15.00;10.97;;;-3.30;75.50;;;;;;6248051;28;20315;-82
2023/12/02 10:07:52;;;;;;;16.00;12.13;;;-3.20;75.20;;;;;;6251793;28;20227;-81
2023/12/02 10:11:03;;;;;;;14.67;11.57;;;-3.20;75.10;;;;;;6251621;28;20238;-80
2023/12/02 10:14:11;;;;;;;14.33;10.93;;;-3.20;74.90;;;;;;6255720;28;20284;-81
2023/12/02 10:17:16;;;;;;;15.43;11.60;;;-3.10;74.90;;;;;;6252935;28;20234;-79
2023/12/02 10:20:28;;;;;;;14.63;11.57;;;-3.10;75.00;;;;;;6251094;28;20548;-80
2023/12/02 10:23:37;;;;;;;18.53;11.70;;;-3.10;75.00;;;;;;6250616;28;20249;-81
2023/12/02 10:26:45;;;;;;;16.73;11.60;;;-3.20;74.70;;;;;;6241118;28;20234;-81
2023/12/02 10:29:57;;;;;;;17.10;11.50;;;-3.30;75.30;;;;;;6259866;28;20230;-80
2023/12/02 10:33:07;;;;;;;15.07;12.10;;;-3.30;75.70;;;;;;6251799;28;20937;-80
2023/12/02 10:36:13;;;;;;;19.77;12.03;;;-3.40;75.90;;;;;;6254456;28;20687;-80
2023/12/02 10:39:30;;;;;;;19.67;11.17;;;-3.30;76.10;;;;;;6256227;28;20320;-79
2023/12/02 10:42:41;;;;;;;16.00;11.17;;;-3.20;76.30;;;;;;6262829;28;20313;-78
2023/12/02 10:45:49;;;;;;;17.43;11.53;;;-3.20;76.30;;;;;;6264727;28;20257;-80
2023/12/02 10:48:54;;;;;;;17.97;11.90;;;-3.20;76.00;;;;;;6264392;28;20312;-80
2023/12/02 10:52:00;;;;;;;15.50;12.37;;;-3.40;76.10;;;;;;6254546;28;20228;-80
2023/12/02 10:55:07;;;;;;;14.73;11.80;;;-3.30;76.10;;;;;;6254522;28;20238;-78
2023/12/02 10:58:12;;;;;;;16.50;11.80;;;-3.40;76.20;;;;;;6250881;28;20245;-81
2023/12/02 11:01:27;;;;;;;14.57;11.53;;;-3.50;76.00;;;;;;6259710;28;20258;-80
2023/12/02 11:04:35;;;;;;;17.20;11.07;;;-3.60;76.50;;;;;;6253434;28;20277;-81
2023/12/02 11:07:47;;;;;;;15.00;11.13;;;-3.60;76.70;;;;;;6250034;28;20231;-78
2023/12/02 11:10:52;;;;;;;12.73;10.70;;;-3.60;76.50;;;;;;6252689;28;20256;-77
2023/12/02 11:13:59;;;;;;;13.17;9.83;;;-3.60;76.80;;;;;;6257687;28;20234;-78
2023/12/02 11:17:11;;;;;;;13.47;10.77;;;-3.80;77.30;;;;;;6245626;28;20837;-79
2023/12/02 11:20:20;;;;;;;15.07;10.47;;;-3.80;77.20;;;;;;6253424;28;20245;-80
2023/12/02 11:23:50;;;;;;;14.60;11.00;;;-3.80;77.20;;;;;;6257750;28;20329;-80
2023/12/02 11:27:04;;;;;;;11.73;9.90;;;-3.60;76.80;;;;;;6247719;28;20234;-79
2023/12/02 11:30:19;;;;;;;15.43;10.93;;;-4.00;76.70;;;;;;6260152;28;20242;-80
2023/12/02 11:33:34;;;;;;;15.13;10.37;;;-4.00;77.60;;;;;;6241542;28;20251;-80
2023/12/02 11:36:47;;;;;;;12.93;10.67;;;-4.00;77.80;;;;;;6255933;28;20234;-79
2023/12/02 11:40:03;;;;;;;10.57;9.37;;;-3.80;77.80;;;;;;6255933;28;20242;-80
2023/12/02 11:43:22;;;;;;;10.23;9.17;;;-3.80;77.50;;;;;;6235397;28;20231;-79
2023/12/02 11:46:31;;;;;;;12.60;10.30;;;-3.80;77.20;;;;;;6253335;28;20293;-79
2023/12/02 11:49:43;;;;;;;10.13;9.03;;;-3.80;76.60;;;;;;6246035;28;20586;-80
2023/12/02 11:53:03;;;;;;;11.50;10.00;;;-3.60;77.00;;;;;;6245073;28;20222;-81
2023/12/02 11:56:11;;;;;;;13.77;10.13;;;-3.70;76.30;;;;;;6245709;28;20239;-80
2023/12/02 11:59:16;;;;;;;12.57;10.10;;;-3.70;76.50;;;;;;6247226;28;20241;-79
2023/12/02 12:02:31;;;;;;;14.90;10.60;;;-3.90;76.80;;;;;;6242661;28;20234;-81
2023/12/02 12:05:43;;;;;;;12.47;10.50;;;-4.00;77.20;;;;;;6250490;28;20372;-80
2023/12/02 12:08:56;;;;;;;11.70;10.47;;;-3.80;77.40;;;;;;6245726;28;20276;-76
2023/12/02 12:12:03;;;;;;;11.77;9.90;;;-3.80;77.20;;;;;;6246954;28;20238;-81
2023/12/02 12:15:08;;;;;;;12.33;10.57;;;-3.90;77.50;;;;;;6248188;28;20794;-81
2023/12/02 12:18:13;;;;;;;12.13;10.37;;;-3.80;77.40;;;;;;6242987;28;20291;-79
2023/12/02 12:21:16;;;;;;;12.37;10.20;;;-3.80;77.60;;;;;;6245612;28;20241;-79
2023/12/02 12:24:19;;;;;;;12.27;9.33;;;-3.80;77.70;;;;;;6245935;28;20369;-80
2023/12/02 12:27:23;;;;;;;13.93;10.90;;;-3.80;77.50;;;;;;6254204;28;20234;-79
2023/12/02 12:30:28;;;;;;;12.67;10.07;;;-3.80;77.60;;;;;;6252774;28;20999;-81
2023/12/02 12:33:32;;;;;;;13.80;11.17;;;-3.80;77.80;;;;;;6248200;28;20239;-79
2023/12/02 12:36:36;;;;;;;16.07;11.40;;;-3.90;77.70;;;;;;6251909;28;20234;-81
2023/12/02 12:39:40;;;;;;;14.63;10.93;;;-4.00;78.20;;;;;;6251277;28;20256;-80
2023/12/02 12:42:49;;;;;;;14.50;10.70;;;-4.00;78.10;;;;;;6252569;28;20243;-80
2023/12/02 12:45:52;;;;;;;13.50;10.60;;;-4.00;78.10;;;;;;6250284;28;20234;-81
2023/12/02 12:48:56;;;;;;;18.13;12.50;;;-3.90;78.20;;;;;;6247504;28;20242;-81
2023/12/02 12:52:03;;;;;;;17.50;12.17;;;-3.90;78.30;;;;;;6249631;28;20320;-82
2023/12/02 12:55:10;;;;;;;21.17;11.80;;;-3.90;78.40;;;;;;6243240;28;20308;-79
2023/12/02 12:58:17;;;;;;;18.10;12.07;;;-3.80;78.40;;;;;;6248864;28;20238;-81
2023/12/02 13:01:23;;;;;;;16.30;12.07;;;-3.80;78.60;;;;;;6244338;28;20233;-81
2023/12/02 13:04:34;;;;;;;20.10;12.77;;;-3.70;78.70;;;;;;6247066;28;20966;-81
2023/12/02 13:07:44;;;;;;;20.57;12.77;;;-3.70;78.40;;;;;;6248525;28;20230;-79
2023/12/02 13:10:48;;;;;;;21.23;12.97;;;-3.80;78.50;;;;;;6242567;28;20751;-81
2023/12/02 13:14:05;;;;;;;21.63;14.07;;;-3.60;78.60;;;;;;6248060;28;20325;-81
2023/12/02 13:17:09;;;;;;;18.00;13.03;;;-3.60;78.80;;;;;;6258268;28;20238;-81
2023/12/02 13:20:13;;;;;;;20.47;14.00;;;-3.60;78.80;;;;;;6241991;28;20288;-79
2023/12/02 13:23:21;;;;;;;20.10;13.27;;;-3.60;79.00;;;;;;6247936;28;20241;-77
2023/12/02 13:26:31;;;;;;;19.63;13.63;;;-3.60;79.00;;;;;;6248132;28;20673;-81
2023/12/02 13:29:37;;;;;;;19.43;13.80;;;-3.60;79.40;;;;;;6241860;28;20241;-80
2023/12/02 13:32:43;;;;;;;21.90;13.97;;;-3.60;79.40;;;;;;6252876;28;20266;-81
2023/12/02 13:35:53;;;;;;;19.63;13.83;;;-3.60;79.80;;;;;;6255446;28;20280;-80
2023/12/02 13:39:04;;;;;;;19.87;13.93;;;-3.60;79.70;;;;;;6254717;28;20229;-81
2023/12/02 13:42:12;;;;;;;20.70;13.70;;;-3.50;79.60;;;;;;6256101;28;20238;-83
2023/12/02 13:45:19;;;;;;;21.23;14.50;;;-3.50;79.70;;;;;;6245564;28;20238;-81
2023/12/02 13:48:29;;;;;;;22.50;15.07;;;-3.40;79.40;;;;;;6255881;28;20238;-78
2023/12/02 13:51:38;;;;;;;22.20;14.33;;;-3.50;79.70;;;;;;6251335;28;20227;-80
2023/12/02 13:54:59;;;;;;;21.30;14.80;;;-3.40;79.70;;;;;;6249157;28;20230;-81
2023/12/02 13:58:13;;;;;;;20.27;14.10;;;-3.40;79.60;;;;;;6237854;28;20752;-79
2023/12/02 14:01:25;;;;;;;20.73;13.73;;;-3.40;79.60;;;;;;6251272;28;20241;-80
2023/12/02 14:04:44;;;;;;;20.57;14.00;;;-3.40;79.70;;;;;;6260480;28;20241;-81
2023/12/02 14:07:51;;;;;;;18.50;14.03;;;-3.30;79.60;;;;;;6254731;28;20227;-81
2023/12/02 14:10:55;;;;;;;18.73;13.73;;;-3.30;79.70;;;;;;6254587;28;20227;-81
2023/12/02 14:14:09;;;;;;;17.17;14.10;;;-3.30;79.60;;;;;;6253155;28;20285;-81
2023/12/02 14:17:28;;;;;;;17.90;13.53;;;-3.40;79.90;;;;;;6250802;28;20826;-83
2023/12/02 14:20:46;;;;;;;20.03;14.57;;;-3.40;79.90;;;;;;6259250;28;20604;-81
2023/12/02 14:24:16;;;;;;;21.33;13.87;;;-3.20;80.00;;;;;;6247788;28;20262;-81
2023/12/02 14:27:41;;;;;;;17.73;13.77;;;-3.20;79.60;;;;;;6245403;28;20670;-80
2023/12/02 14:31:05;;;;;;;16.37;13.20;;;-3.20;79.50;;;;;;6258875;28;20246;-79
2023/12/02 14:34:39;;;;;;;14.47;12.27;;;-3.20;79.50;;;;;;6258248;28;20238;-81
2023/12/02 14:38:01;;;;;;;20.47;13.50;;;-3.20;79.40;;;;;;6259810;28;20250;-82
2023/12/02 14:41:19;;;;;;;16.13;12.80;;;-3.40;79.40;;;;;;6251696;28;20308;-79
2023/12/02 14:44:26;;;;;;;16.13;11.73;;;-3.40;79.70;;;;;;6253644;28;20222;-80
2023/12/02 14:47:29;;;;;;;17.10;13.83;;;-3.30;79.90;;;;;;6246390;28;20633;-81
2023/12/02 14:50:35;;;;;;;19.30;13.83;;;-3.30;79.90;;;;;;6260422;28;20230;-80
2023/12/02 14:53:41;;;;;;;25.63;17.30;;;-3.30;80.00;;;;;;6258378;28;20242;-82
2023/12/02 14:56:44;;;;;;;20.57;14.87;;;-3.30;80.20;;;;;;6253440;28;20230;-79
2023/12/02 14:59:55;;;;;;;20.50;14.50;;;-3.20;80.30;;;;;;6253308;28;20233;-79
2023/12/02 15:02:59;;;;;;;22.43;15.37;;;-3.20;80.50;;;;;;6245926;28;20241;-78
2023/12/02 15:06:07;;;;;;;21.57;15.43;;;-3.20;80.30;;;;;;6253399;28;20328;-79
2023/12/02 15:09:25;;;;;;;23.97;15.60;;;-3.20;80.40;;;;;;6253242;28;20907;-78
2023/12/02 15:12:34;;;;;;;25.70;16.40;;;-3.20;80.50;;;;;;6258488;28;20234;-80
2023/12/02 15:15:40;;;;;;;25.83;16.73;;;-3.20;80.60;;;;;;6255071;28;20234;-81
2023/12/02 15:18:45;;;;;;;24.13;16.00;;;-3.10;80.60;;;;;;6253297;28;20608;-80
2023/12/02 15:22:21;;;;;;;26.90;17.80;;;-3.10;80.50;;;;;;6251500;28;20234;-81
2023/12/02 15:25:24;;;;;;;26.20;16.63;;;-3.00;80.30;;;;;;6250490;28;20843;-79
2023/12/02 15:28:53;;;;;;;25.97;18.10;;;-3.00;80.50;;;;;;6247466;28;20583;-82
2023/12/02 15:31:57;;;;;;;28.47;17.87;;;-2.90;80.30;;;;;;6241776;28;20234;-79
2023/12/02 15:35:00;;;;;;;23.37;16.67;;;-2.90;80.30;;;;;;6250788;28;20242;-80
2023/12/02 15:38:05;;;;;;;26.27;16.53;;;-2.90;80.00;;;;;;6250073;28;20241;-79
2023/12/02 15:41:08;;;;;;;24.47;17.73;;;-2.90;79.90;;;;;;6256968;28;20249;-79
2023/12/02 15:44:11;;;;;;;23.13;16.90;;;-2.90;79.70;;;;;;6255246;28;20890;-80
2023/12/02 15:47:15;;;;;;;24.17;18.07;;;-3.00;80.00;;;;;;6246355;28;20318;-80